Lake McDonald, Montana
Current Conditions -  °F | °C
As of 2:55 AM on Friday 24 Oct 2014 (Local Time) from KGPI Reporting Station
Broken Clouds Broken Clouds  
Wind Chill: 42°   Ceiling: 6500
Heat Index: 46°   Visibility: 10mi
Dew Point: 38°   Wind: 7mph
Humidity: 73%   Direction: 200°SSW
Pressure: 29.98"   Gusts: NA
Location:  48.62°N, 113.87°W
Report Text: KGPI 240855Z AUTO 20006KT 10SM BKN065 08/03 A2998 RMK AO2 SLP156 T00780033 51020
Loading
Personal Weather Stations






























Interactive Weather Map
Tropical Storm Tracking
New forecast layout! Learn more

10-Day Weather Forecast

Advertisements
Track Severe Weather on mobile